sensor_id;sensor_type;location;lat;lon;timestamp;pressure;altitude;pressure_sealevel;temperature;humidity
69667;BME280;66534;52.370;4.832;2023-07-16T00:00:21;100672.97;;;17.29;100.00
69667;BME280;66534;52.370;4.832;2023-07-16T00:00:52;100675.47;;;17.30;100.00
69667;BME280;66534;52.370;4.832;2023-07-16T00:01:22;100675.84;;;17.26;100.00
69667;BME280;66534;52.370;4.832;2023-07-16T00:01:53;100676.94;;;17.23;100.00
69667;BME280;66534;52.370;4.832;2023-07-16T00:02:23;100676.81;;;17.25;100.00
69667;BME280;66534;52.370;4.832;2023-07-16T00:02:54;100677.78;;;17.24;100.00
69667;BME280;66534;52.370;4.832;2023-07-16T00:03:24;100679.69;;;17.22;100.00
69667;BME280;66534;52.370;4.832;2023-07-16T00:03:55;100677.41;;;17.28;100.00
69667;BME280;66534;52.370;4.832;2023-07-16T00:04:25;100674.91;;;17.27;100.00
69667;BME280;66534;52.370;4.832;2023-07-16T00:04:55;100676.31;;;17.20;100.00
69667;BME280;66534;52.370;4.832;2023-07-16T00:05:26;100673.78;;;17.18;100.00
69667;BME280;66534;52.370;4.832;2023-07-16T00:05:57;100678.97;;;17.20;100.00
69667;BME280;66534;52.370;4.832;2023-07-16T00:06:27;100673.16;;;17.14;100.00
69667;BME280;66534;52.370;4.832;2023-07-16T00:07:00;100666.91;;;17.15;100.00
69667;BME280;66534;52.370;4.832;2023-07-16T00:07:31;100677.63;;;17.14;100.00
69667;BME280;66534;52.370;4.832;2023-07-16T00:08:02;100673.25;;;17.13;100.00
69667;BME280;66534;52.370;4.832;2023-07-16T00:08:32;100674.00;;;17.15;100.00
69667;BME280;66534;52.370;4.832;2023-07-16T00:09:03;100671.91;;;17.07;100.00
69667;BME280;66534;52.370;4.832;2023-07-16T00:09:33;100666.50;;;17.09;100.00
69667;BME280;66534;52.370;4.832;2023-07-16T00:10:04;100670.09;;;17.08;100.00
69667;BME280;66534;52.370;4.832;2023-07-16T00:10:35;100664.81;;;17.08;100.00
69667;BME280;66534;52.370;4.832;2023-07-16T00:11:07;100676.16;;;17.10;100.00
69667;BME280;66534;52.370;4.832;2023-07-16T00:11:37;100662.38;;;17.05;100.00
69667;BME280;66534;52.370;4.832;2023-07-16T00:12:08;100669.63;;;17.03;100.00
69667;BME280;66534;52.370;4.832;2023-07-16T00:12:39;100665.78;;;17.07;100.00
69667;BME280;66534;52.370;4.832;2023-07-16T00:13:10;100664.41;;;17.01;100.00
69667;BME280;66534;52.370;4.832;2023-07-16T00:13:41;100665.72;;;16.96;100.00
69667;BME280;66534;52.370;4.832;2023-07-16T00:14:16;100665.38;;;17.00;100.00
69667;BME280;66534;52.370;4.832;2023-07-16T00:14:47;100669.47;;;16.93;100.00
69667;BME280;66534;52.370;4.832;2023-07-16T00:15:18;100661.59;;;16.91;100.00
69667;BME280;66534;52.370;4.832;2023-07-16T00:15:48;100663.81;;;16.98;100.00
69667;BME280;66534;52.370;4.832;2023-07-16T00:16:19;100670.69;;;17.00;100.00
69667;BME280;66534;52.370;4.832;2023-07-16T00:16:49;100658.41;;;16.99;100.00
69667;BME280;66534;52.370;4.832;2023-07-16T00:17:20;100668.03;;;17.00;100.00
69667;BME280;66534;52.370;4.832;2023-07-16T00:17:50;100663.81;;;16.98;100.00
69667;BME280;66534;52.370;4.832;2023-07-16T00:18:20;100661.66;;;17.03;100.00
69667;BME280;66534;52.370;4.832;2023-07-16T00:18:51;100666.00;;;17.04;100.00
69667;BME280;66534;52.370;4.832;2023-07-16T00:19:21;100661.38;;;16.95;100.00
69667;BME280;66534;52.370;4.832;2023-07-16T00:19:52;100660.53;;;16.94;100.00
69667;BME280;66534;52.370;4.832;2023-07-16T00:20:22;100658.34;;;16.88;100.00
69667;BME280;66534;52.370;4.832;2023-07-16T00:20:56;100663.13;;;16.83;100.00
69667;BME280;66534;52.370;4.832;2023-07-16T00:21:26;100654.97;;;16.86;100.00
69667;BME280;66534;52.370;4.832;2023-07-16T00:21:57;100660.34;;;16.84;100.00
69667;BME280;66534;52.370;4.832;2023-07-16T00:22:27;100658.00;;;16.92;100.00
69667;BME280;66534;52.370;4.832;2023-07-16T00:22:57;100655.03;;;16.97;100.00
69667;BME280;66534;52.370;4.832;2023-07-16T00:23:28;100657.78;;;16.96;100.00
69667;BME280;66534;52.370;4.832;2023-07-16T00:23:58;100654.28;;;16.95;100.00
69667;BME280;66534;52.370;4.832;2023-07-16T00:24:29;100654.41;;;16.93;100.00
69667;BME280;66534;52.370;4.832;2023-07-16T00:24:59;100661.81;;;16.88;100.00
69667;BME280;66534;52.370;4.832;2023-07-16T00:25:33;100659.28;;;16.87;100.00
69667;BME280;66534;52.370;4.832;2023-07-16T00:26:05;100654.28;;;16.95;100.00
69667;BME280;66534;52.370;4.832;2023-07-16T00:26:35;100657.56;;;16.99;100.00
69667;BME280;66534;52.370;4.832;2023-07-16T00:27:06;100655.97;;;16.96;100.00
69667;BME280;66534;52.370;4.832;2023-07-16T00:27:36;100653.88;;;16.88;100.00
69667;BME280;66534;52.370;4.832;2023-07-16T00:28:06;100661.09;;;16.86;100.00
69667;BME280;66534;52.370;4.832;2023-07-16T00:28:37;100655.06;;;16.84;100.00
69667;BME280;66534;52.370;4.832;2023-07-16T00:29:07;100651.84;;;16.92;100.00
69667;BME280;66534;52.370;4.832;2023-07-16T00:29:38;100660.41;;;16.96;100.00
69667;BME280;66534;52.370;4.832;2023-07-16T00:30:09;100661.16;;;16.98;100.00
69667;BME280;66534;52.370;4.832;2023-07-16T00:30:39;100652.03;;;17.02;100.00
69667;BME280;66534;52.370;4.832;2023-07-16T00:31:10;100644.53;;;16.96;100.00
69667;BME280;66534;52.370;4.832;2023-07-16T00:31:40;100648.34;;;16.91;100.00
69667;BME280;66534;52.370;4.832;2023-07-16T00:32:11;100646.56;;;16.92;100.00
69667;BME280;66534;52.370;4.832;2023-07-16T00:32:41;100647.63;;;16.89;100.00
69667;BME280;66534;52.370;4.832;2023-07-16T00:33:11;100650.28;;;16.89;100.00
69667;BME280;66534;52.370;4.832;2023-07-16T00:33:42;100649.53;;;16.87;100.00
69667;BME280;66534;52.370;4.832;2023-07-16T00:34:12;100648.97;;;16.95;100.00
69667;BME280;66534;52.370;4.832;2023-07-16T00:34:43;100649.31;;;16.90;100.00
69667;BME280;66534;52.370;4.832;2023-07-16T00:35:14;100654.13;;;16.85;100.00
69667;BME280;66534;52.370;4.832;2023-07-16T00:35:46;100649.44;;;16.89;100.00
69667;BME280;66534;52.370;4.832;2023-07-16T00:36:20;100649.53;;;16.87;100.00
69667;BME280;66534;52.370;4.832;2023-07-16T00:36:50;100655.19;;;16.83;100.00
69667;BME280;66534;52.370;4.832;2023-07-16T00:37:20;100658.47;;;16.86;100.00
69667;BME280;66534;52.370;4.832;2023-07-16T00:37:51;100652.66;;;16.81;100.00
69667;BME280;66534;52.370;4.832;2023-07-16T00:38:21;100657.47;;;16.76;100.00
69667;BME280;66534;52.370;4.832;2023-07-16T00:38:52;100655.53;;;16.78;100.00
69667;BME280;66534;52.370;4.832;2023-07-16T00:39:22;100655.66;;;16.77;100.00
69667;BME280;66534;52.370;4.832;2023-07-16T00:39:53;100660.09;;;16.76;100.00
69667;BME280;66534;52.370;4.832;2023-07-16T00:40:23;100652.88;;;16.78;100.00
69667;BME280;66534;52.370;4.832;2023-07-16T00:40:54;100660.81;;;16.78;100.00
69667;BME280;66534;52.370;4.832;2023-07-16T00:41:24;100644.44;;;16.73;100.00
69667;BME280;66534;52.370;4.832;2023-07-16T00:41:55;100653.00;;;16.77;100.00
69667;BME280;66534;52.370;4.832;2023-07-16T00:42:25;100650.84;;;16.82;100.00
69667;BME280;66534;52.370;4.832;2023-07-16T00:42:56;100652.38;;;16.73;100.00
69667;BME280;66534;52.370;4.832;2023-07-16T00:43:26;100648.53;;;16.77;100.00
69667;BME280;66534;52.370;4.832;2023-07-16T00:43:56;100648.53;;;16.77;100.00
69667;BME280;66534;52.370;4.832;2023-07-16T00:44:27;100647.22;;;16.83;100.00
69667;BME280;66534;52.370;4.832;2023-07-16T00:44:57;100643.88;;;16.81;100.00
69667;BME280;66534;52.370;4.832;2023-07-16T00:45:28;100648.63;;;16.76;100.00
69667;BME280;66534;52.370;4.832;2023-07-16T00:45:58;100647.44;;;16.80;100.00
69667;BME280;66534;52.370;4.832;2023-07-16T00:46:29;100654.34;;;16.82;100.00
69667;BME280;66534;52.370;4.832;2023-07-16T00:46:59;100648.69;;;16.87;100.00
69667;BME280;66534;52.370;4.832;2023-07-16T00:47:30;100656.53;;;16.88;100.00
69667;BME280;66534;52.370;4.832;2023-07-16T00:48:01;100653.88;;;16.88;100.00
69667;BME280;66534;52.370;4.832;2023-07-16T00:48:31;100649.44;;;16.89;100.00
69667;BME280;66534;52.370;4.832;2023-07-16T00:49:02;100656.66;;;16.87;100.00
69667;BME280;66534;52.370;4.832;2023-07-16T00:49:32;100660.75;;;16.91;100.00
69667;BME280;66534;52.370;4.832;2023-07-16T00:50:03;100654.13;;;16.85;100.00
69667;BME280;66534;52.370;4.832;2023-07-16T00:50:34;100660.47;;;16.83;100.00
69667;BME280;66534;52.370;4.832;2023-07-16T00:51:09;100659.41;;;16.85;100.00
69667;BME280;66534;52.370;4.832;2023-07-16T00:51:39;100663.75;;;16.86;100.00
69667;BME280;66534;52.370;4.832;2023-07-16T00:52:11;100660.25;;;16.86;100.00
69667;BME280;66534;52.370;4.832;2023-07-16T00:52:46;100663.63;;;16.88;100.00
69667;BME280;66534;52.370;4.832;2023-07-16T00:53:17;100666.63;;;16.83;100.00
69667;BME280;66534;52.370;4.832;2023-07-16T00:53:47;100661.22;;;16.85;100.00
69667;BME280;66534;52.370;4.832;2023-07-16T00:54:19;100653.28;;;16.85;100.00
69667;BME280;66534;52.370;4.832;2023-07-16T00:54:50;100658.66;;;16.83;100.00
69667;BME280;66534;52.370;4.832;2023-07-16T00:55:20;100655.94;;;16.85;100.00
69667;BME280;66534;52.370;4.832;2023-07-16T00:55:51;100658.59;;;16.85;100.00
69667;BME280;66534;52.370;4.832;2023-07-16T00:56:21;100653.50;;;16.82;100.00
69667;BME280;66534;52.370;4.832;2023-07-16T00:56:52;100654.97;;;16.86;100.00
69667;BME280;66534;52.370;4.832;2023-07-16T00:57:23;100649.53;;;16.87;100.00
69667;BME280;66534;52.370;4.832;2023-07-16T00:57:53;100660.34;;;16.84;100.00
69667;BME280;66534;52.370;4.832;2023-07-16T00:58:26;100651.34;;;16.87;100.00
69667;BME280;66534;52.370;4.832;2023-07-16T00:58:56;100656.66;;;16.87;100.00
69667;BME280;66534;52.370;4.832;2023-07-16T00:59:26;100652.47;;;16.96;100.00
69667;BME280;66534;52.370;4.832;2023-07-16T00:59:57;100657.91;;;16.94;100.00
69667;BME280;66534;52.370;4.832;2023-07-16T01:00:28;100655.13;;;16.96;100.00
69667;BME280;66534;52.370;4.832;2023-07-16T01:00:58;100651.75;;;16.93;100.00
69667;BME280;66534;52.370;4.832;2023-07-16T01:01:29;100659.56;;;16.95;100.00
69667;BME280;66534;52.370;4.832;2023-07-16T01:01:59;100656.81;;;16.97;100.00
69667;BME280;66534;52.370;4.832;2023-07-16T01:02:30;100661.59;;;16.91;100.00
69667;BME280;66534;52.370;4.832;2023-07-16T01:03:03;100664.41;;;17.01;100.00
69667;BME280;66534;52.370;4.832;2023-07-16T01:03:38;100658.97;;;16.91;100.00
69667;BME280;66534;52.370;4.832;2023-07-16T01:04:09;100662.78;;;16.87;100.00
69667;BME280;66534;52.370;4.832;2023-07-16T01:04:40;100658.34;;;16.88;100.00
69667;BME280;66534;52.370;4.832;2023-07-16T01:05:10;100662.06;;;16.85;100.00
69667;BME280;66534;52.370;4.832;2023-07-16T01:06:57;100663.53;;;16.89;100.00
69667;BME280;66534;52.370;4.832;2023-07-16T01:07:23;100659.91;;;16.90;100.00
69667;BME280;66534;52.370;4.832;2023-07-16T01:07:58;100664.25;;;16.91;100.00
69667;BME280;66534;52.370;4.832;2023-07-16T01:08:32;100663.19;;;16.94;100.00
69667;BME280;66534;52.370;4.832;2023-07-16T01:09:49;100675.13;;;17.00;100.00
69667;BME280;66534;52.370;4.832;2023-07-16T01:10:19;100678.41;;;17.03;100.00
69667;BME280;66534;52.370;4.832;2023-07-16T01:10:51;100673.50;;;17.10;100.00
69667;BME280;66534;52.370;4.832;2023-07-16T01:11:22;100685.56;;;17.14;100.00
69667;BME280;66534;52.370;4.832;2023-07-16T01:11:53;100677.94;;;17.09;100.00
69667;BME280;66534;52.370;4.832;2023-07-16T01:12:25;100680.38;;;17.12;100.00
69667;BME280;66534;52.370;4.832;2023-07-16T01:12:57;100686.28;;;17.16;100.00
69667;BME280;66534;52.370;4.832;2023-07-16T01:13:28;100678.84;;;17.21;100.00
69667;BME280;66534;52.370;4.832;2023-07-16T01:13:59;100683.28;;;17.21;100.00
69667;BME280;66534;52.370;4.832;2023-07-16T01:14:29;100676.81;;;17.25;100.00
69667;BME280;66534;52.370;4.832;2023-07-16T01:15:00;100680.50;;;17.22;100.00
69667;BME280;66534;52.370;4.832;2023-07-16T01:15:31;100680.50;;;17.22;100.00
69667;BME280;66534;52.370;4.832;2023-07-16T01:16:02;100683.63;;;17.16;100.00
69667;BME280;66534;52.370;4.832;2023-07-16T01:16:32;100687.25;;;17.15;100.00
69667;BME280;66534;52.370;4.832;2023-07-16T01:17:04;100681.13;;;17.14;100.00
69667;BME280;66534;52.370;4.832;2023-07-16T01:17:36;100684.47;;;17.16;100.00
69667;BME280;66534;52.370;4.832;2023-07-16T01:18:07;100671.34;;;17.15;100.00
69667;BME280;66534;52.370;4.832;2023-07-16T01:18:37;100673.16;;;17.14;100.00
69667;BME280;66534;52.370;4.832;2023-07-16T01:19:08;100684.59;;;17.15;100.00
69667;BME280;66534;52.370;4.832;2023-07-16T01:19:39;100688.81;;;17.17;100.00
69667;BME280;66534;52.370;4.832;2023-07-16T01:20:09;100678.34;;;17.16;100.00
69667;BME280;66534;52.370;4.832;2023-07-16T01:20:41;100681.47;;;17.21;100.00
69667;BME280;66534;52.370;4.832;2023-07-16T01:21:11;100681.97;;;17.26;100.00
69667;BME280;66534;52.370;4.832;2023-07-16T01:21:45;100687.25;;;17.15;100.00
69667;BME280;66534;52.370;4.832;2023-07-16T01:23:25;100689.47;;;16.97;100.00
69667;BME280;66534;52.370;4.832;2023-07-16T01:28:55;100689.69;;;16.57;100.00
69667;BME280;66534;52.370;4.832;2023-07-16T01:30:05;100686.06;;;16.58;100.00
69667;BME280;66534;52.370;4.832;2023-07-16T01:30:41;100684.25;;;16.59;100.00
69667;BME280;66534;52.370;4.832;2023-07-16T01:31:15;100685.22;;;16.58;100.00
69667;BME280;66534;52.370;4.832;2023-07-16T01:31:47;100685.84;;;16.61;100.00
69667;BME280;66534;52.370;4.832;2023-07-16T01:32:19;100684.25;;;16.59;100.00
69667;BME280;66534;52.370;4.832;2023-07-16T01:32:52;100681.91;;;16.67;100.00
69667;BME280;66534;52.370;4.832;2023-07-16T01:33:23;100687.09;;;16.68;100.00
69667;BME280;66534;52.370;4.832;2023-07-16T01:33:54;100680.97;;;16.68;100.00
69667;BME280;66534;52.370;4.832;2023-07-16T01:34:25;100678.84;;;16.73;100.00
69667;BME280;66534;52.370;4.832;2023-07-16T01:34:59;100682.03;;;16.65;100.00
69667;BME280;66534;52.370;4.832;2023-07-16T01:35:30;100679.88;;;16.71;100.00
69667;BME280;66534;52.370;4.832;2023-07-16T01:36:02;100687.75;;;16.72;100.00
69667;BME280;66534;52.370;4.832;2023-07-16T01:36:33;100687.19;;;16.67;100.00
69667;BME280;66534;52.370;4.832;2023-07-16T01:37:04;100684.47;;;16.68;100.00
69667;BME280;66534;52.370;4.832;2023-07-16T01:37:35;100684.56;;;16.67;100.00
69667;BME280;66534;52.370;4.832;2023-07-16T01:38:06;100690.38;;;16.72;100.00
69667;BME280;66534;52.370;4.832;2023-07-16T01:38:38;100688.38;;;16.76;100.00
69667;BME280;66534;52.370;4.832;2023-07-16T01:39:08;100689.00;;;16.79;100.00
69667;BME280;66534;52.370;4.832;2023-07-16T01:39:39;100690.69;;;16.80;100.00
69667;BME280;66534;52.370;4.832;2023-07-16T01:40:10;100690.19;;;16.75;100.00
69667;BME280;66534;52.370;4.832;2023-07-16T01:40:41;100679.69;;;16.74;100.00
69667;BME280;66534;52.370;4.832;2023-07-16T01:41:11;100682.13;;;16.77;100.00
69667;BME280;66534;52.370;4.832;2023-07-16T01:41:42;100688.28;;;16.77;100.00
69667;BME280;66534;52.370;4.832;2023-07-16T01:42:12;100687.31;;;16.78;100.00
69667;BME280;66534;52.370;4.832;2023-07-16T01:42:43;100684.66;;;16.78;100.00
69667;BME280;66534;52.370;4.832;2023-07-16T01:43:13;100690.69;;;16.80;100.00
69667;BME280;66534;52.370;4.832;2023-07-16T01:43:44;100672.59;;;16.74;100.00
69667;BME280;66534;52.370;4.832;2023-07-16T01:44:14;100675.88;;;16.78;100.00
69667;BME280;66534;52.370;4.832;2023-07-16T01:44:44;100684.44;;;16.81;100.00
69667;BME280;66534;52.370;4.832;2023-07-16T01:45:15;100688.56;;;16.85;100.00
69667;BME280;66534;52.370;4.832;2023-07-16T01:45:45;100687.09;;;16.81;100.00
69667;BME280;66534;52.370;4.832;2023-07-16T01:46:16;100683.06;;;16.76;100.00
69667;BME280;66534;52.370;4.832;2023-07-16T01:46:49;100686.47;;;16.78;100.00
69667;BME280;66534;52.370;4.832;2023-07-16T01:48:30;100685.28;;;16.82;100.00
69667;BME280;66534;52.370;4.832;2023-07-16T01:49:03;100681.25;;;16.89;100.00
69667;BME280;66534;52.370;4.832;2023-07-16T01:49:34;100693.03;;;16.85;100.00
69667;BME280;66534;52.370;4.832;2023-07-16T01:50:05;100682.97;;;16.77;100.00
69667;BME280;66534;52.370;4.832;2023-07-16T01:50:36;100684.88;;;16.75;100.00
69667;BME280;66534;52.370;4.832;2023-07-16T01:51:07;100683.19;;;16.74;100.00
69667;BME280;66534;52.370;4.832;2023-07-16T01:51:37;100683.19;;;16.74;100.00
69667;BME280;66534;52.370;4.832;2023-07-16T01:52:08;100674.19;;;16.77;100.00
69667;BME280;66534;52.370;4.832;2023-07-16T01:52:39;100686.00;;;16.84;100.00
69667;BME280;66534;52.370;4.832;2023-07-16T01:53:10;100692.47;;;16.80;100.00
69667;BME280;66534;52.370;4.832;2023-07-16T01:53:40;100678.41;;;16.79;100.00
69667;BME280;66534;52.370;4.832;2023-07-16T01:54:11;100676.50;;;16.81;100.00
69667;BME280;66534;52.370;4.832;2023-07-16T01:54:41;100680.97;;;16.81;100.00
69667;BME280;66534;52.370;4.832;2023-07-16T01:55:12;100674.06;;;16.78;100.00
69667;BME280;66534;52.370;4.832;2023-07-16T01:55:42;100677.56;;;16.79;100.00
69667;BME280;66534;52.370;4.832;2023-07-16T01:56:12;100680.00;;;16.82;100.00
69667;BME280;66534;52.370;4.832;2023-07-16T01:56:43;100679.88;;;16.83;100.00
69667;BME280;66534;52.370;4.832;2023-07-16T01:57:13;100683.47;;;16.82;100.00
69667;BME280;66534;52.370;4.832;2023-07-16T01:57:44;100683.59;;;16.81;100.00
69667;BME280;66534;52.370;4.832;2023-07-16T01:58:14;100672.75;;;16.84;100.00
69667;BME280;66534;52.370;4.832;2023-07-16T01:58:44;100677.97;;;16.85;100.00
69667;BME280;66534;52.370;4.832;2023-07-16T01:59:15;100670.09;;;16.84;100.00
69667;BME280;66534;52.370;4.832;2023-07-16T01:59:45;100679.66;;;16.86;100.00
69667;BME280;66534;52.370;4.832;2023-07-16T02:00:16;100672.19;;;16.91;100.00
69667;BME280;66534;52.370;4.832;2023-07-16T02:00:49;100683.44;;;16.95;100.00
69667;BME280;66534;52.370;4.832;2023-07-16T02:01:20;100674.63;;;16.95;100.00
69667;BME280;66534;52.370;4.832;2023-07-16T02:01:50;100675.47;;;16.95;100.00
69667;BME280;66534;52.370;4.832;2023-07-16T02:02:21;100671.75;;;16.98;100.00
69667;BME280;66534;52.370;4.832;2023-07-16T02:02:51;100676.09;;;16.99;100.00
69667;BME280;66534;52.370;4.832;2023-07-16T02:03:22;100671.75;;;16.98;100.00
69667;BME280;66534;52.370;4.832;2023-07-16T02:03:52;100666.56;;;16.96;100.00
69667;BME280;66534;52.370;4.832;2023-07-16T02:04:22;100675.25;;;16.98;100.00
69667;BME280;66534;52.370;4.832;2023-07-16T02:04:53;100678.88;;;16.97;100.00
69667;BME280;66534;52.370;4.832;2023-07-16T02:05:23;100672.41;;;16.88;100.00
69667;BME280;66534;52.370;4.832;2023-07-16T02:05:54;100680.63;;;16.85;100.00
69667;BME280;66534;52.370;4.832;2023-07-16T02:06:24;100679.53;;;16.88;100.00
69667;BME280;66534;52.370;4.832;2023-07-16T02:06:54;100673.38;;;16.87;100.00
69667;BME280;66534;52.370;4.832;2023-07-16T02:07:25;100668.22;;;16.86;100.00
69667;BME280;66534;52.370;4.832;2023-07-16T02:07:55;100666.41;;;16.86;100.00
69667;BME280;66534;52.370;4.832;2023-07-16T02:08:26;100676.03;;;16.87;100.00
69667;BME280;66534;52.370;4.832;2023-07-16T02:08:56;100674.47;;;16.85;100.00
69667;BME280;66534;52.370;4.832;2023-07-16T02:09:27;100670.03;;;16.85;100.00
69667;BME280;66534;52.370;4.832;2023-07-16T02:09:57;100669.91;;;16.87;100.00
69667;BME280;66534;52.370;4.832;2023-07-16T02:10:28;100673.16;;;16.90;100.00
69667;BME280;66534;52.370;4.832;2023-07-16T02:10:58;100670.06;;;16.97;100.00
69667;BME280;66534;52.370;4.832;2023-07-16T02:11:28;100670.19;;;16.95;100.00
69667;BME280;66534;52.370;4.832;2023-07-16T02:11:59;100669.34;;;16.95;100.00
69667;BME280;66534;52.370;4.832;2023-07-16T02:12:29;100675.47;;;16.95;100.00
69667;BME280;66534;52.370;4.832;2023-07-16T02:13:00;100666.91;;;16.91;100.00
69667;BME280;66534;52.370;4.832;2023-07-16T02:13:30;100673.28;;;16.89;100.00
69667;BME280;66534;52.370;4.832;2023-07-16T02:14:01;100673.16;;;16.90;100.00
69667;BME280;66534;52.370;4.832;2023-07-16T02:14:31;100666.56;;;16.96;100.00
69667;BME280;66534;52.370;4.832;2023-07-16T02:15:02;100667.41;;;16.97;100.00
69667;BME280;66534;52.370;4.832;2023-07-16T02:15:32;100671.00;;;16.96;100.00
69667;BME280;66534;52.370;4.832;2023-07-16T02:16:03;100668.59;;;16.92;100.00
69667;BME280;66534;52.370;4.832;2023-07-16T02:16:33;100673.38;;;16.87;100.00
69667;BME280;66534;52.370;4.832;2023-07-16T02:17:04;100673.88;;;16.92;100.00
69667;BME280;66534;52.370;4.832;2023-07-16T02:17:34;100666.91;;;16.91;100.00
69667;BME280;66534;52.370;4.832;2023-07-16T02:18:05;100667.13;;;16.88;100.00
69667;BME280;66534;52.370;4.832;2023-07-16T02:18:36;100661.59;;;16.91;100.00
69667;BME280;66534;52.370;4.832;2023-07-16T02:19:06;100668.94;;;16.88;100.00
69667;BME280;66534;52.370;4.832;2023-07-16T02:19:37;100670.72;;;16.87;100.00
69667;BME280;66534;52.370;4.832;2023-07-16T02:20:07;100666.19;;;16.89;100.00
69667;BME280;66534;52.370;4.832;2023-07-16T02:20:40;100670.53;;;16.90;100.00
69667;BME280;66534;52.370;4.832;2023-07-16T02:21:10;100672.19;;;16.91;100.00
69667;BME280;66534;52.370;4.832;2023-07-16T02:21:40;100663.41;;;16.91;100.00
69667;BME280;66534;52.370;4.832;2023-07-16T02:22:11;100673.66;;;16.96;100.00
69667;BME280;66534;52.370;4.832;2023-07-16T02:22:41;100671.50;;;17.01;100.00
69667;BME280;66534;52.370;4.832;2023-07-16T02:23:12;100677.34;;;17.06;100.00
69667;BME280;66534;52.370;4.832;2023-07-16T02:23:42;100673.22;;;17.02;100.00
69667;BME280;66534;52.370;4.832;2023-07-16T02:24:12;100675.97;;;17.00;100.00
69667;BME280;66534;52.370;4.832;2023-07-16T02:24:43;100667.31;;;16.98;100.00
69667;BME280;66534;52.370;4.832;2023-07-16T02:25:13;100674.50;;;16.96;100.00
69667;BME280;66534;52.370;4.832;2023-07-16T02:25:44;100677.91;;;16.98;100.00
69667;BME280;66534;52.370;4.832;2023-07-16T02:26:14;100675.13;;;17.00;100.00
69667;BME280;66534;52.370;4.832;2023-07-16T02:26:45;100667.31;;;16.98;100.00
69667;BME280;66534;52.370;4.832;2023-07-16T02:27:15;100668.88;;;17.01;100.00
69667;BME280;66534;52.370;4.832;2023-07-16T02:27:45;100674.16;;;17.01;100.00
69667;BME280;66534;52.370;4.832;2023-07-16T02:28:16;100671.00;;;16.96;100.00
69667;BME280;66534;52.370;4.832;2023-07-16T02:28:46;100675.47;;;16.95;100.00
69667;BME280;66534;52.370;4.832;2023-07-16T02:29:17;100661.16;;;16.98;100.00
69667;BME280;66534;52.370;4.832;2023-07-16T02:29:47;100668.59;;;16.92;100.00
69667;BME280;66534;52.370;4.832;2023-07-16T02:30:18;100668.50;;;16.94;100.00
69667;BME280;66534;52.370;4.832;2023-07-16T02:30:49;100671.75;;;16.98;100.00
69667;BME280;66534;52.370;4.832;2023-07-16T02:31:20;100681.19;;;17.02;100.00
69667;BME280;66534;52.370;4.832;2023-07-16T02:31:51;100662.84;;;16.99;100.00
69667;BME280;66534;52.370;4.832;2023-07-16T02:32:21;100672.59;;;16.98;100.00
69667;BME280;66534;52.370;4.832;2023-07-16T02:32:52;100675.97;;;17.00;100.00
69667;BME280;66534;52.370;4.832;2023-07-16T02:33:22;100669.72;;;17.01;100.00
69667;BME280;66534;52.370;4.832;2023-07-16T02:33:52;100672.47;;;17.00;100.00
69667;BME280;66534;52.370;4.832;2023-07-16T02:34:23;100668.28;;;16.97;100.00
69667;BME280;66534;52.370;4.832;2023-07-16T02:34:53;100666.47;;;16.98;100.00
69667;BME280;66534;52.370;4.832;2023-07-16T02:35:24;100666.47;;;16.98;100.00
69667;BME280;66534;52.370;4.832;2023-07-16T02:35:54;100669.34;;;16.95;100.00
69667;BME280;66534;52.370;4.832;2023-07-16T02:36:24;100666.06;;;16.91;100.00
69667;BME280;66534;52.370;4.832;2023-07-16T02:36:55;100663.53;;;16.89;100.00
69667;BME280;66534;52.370;4.832;2023-07-16T02:37:25;100666.69;;;16.95;100.00
69667;BME280;66534;52.370;4.832;2023-07-16T02:37:56;100666.06;;;16.91;100.00
69667;BME280;66534;52.370;4.832;2023-07-16T02:38:26;100676.66;;;16.91;100.00
69667;BME280;66534;52.370;4.832;2023-07-16T02:38:57;100665.22;;;16.90;100.00
69667;BME280;66534;52.370;4.832;2023-07-16T02:39:27;100666.91;;;16.91;100.00
69667;BME280;66534;52.370;4.832;2023-07-16T02:39:58;100675.59;;;16.93;100.00
69667;BME280;66534;52.370;4.832;2023-07-16T02:40:29;100671.97;;;16.95;100.00
69667;BME280;66534;52.370;4.832;2023-07-16T02:40:59;100670.19;;;16.95;100.00
69667;BME280;66534;52.370;4.832;2023-07-16T02:41:30;100669.22;;;16.96;100.00
69667;BME280;66534;52.370;4.832;2023-07-16T02:42:00;100599.53;;;16.59;100.00
69667;BME280;66534;52.370;4.832;2023-07-16T02:42:31;100666.47;;;16.98;100.00
69667;BME280;66534;52.370;4.832;2023-07-16T02:43:01;100668.28;;;16.97;100.00
69667;BME280;66534;52.370;4.832;2023-07-16T02:43:31;100664.25;;;16.91;100.00
69667;BME280;66534;52.370;4.832;2023-07-16T02:44:04;100667.53;;;16.95;100.00
69667;BME280;66534;52.370;4.832;2023-07-16T02:44:35;100669.56;;;16.91;100.00
69667;BME280;66534;52.370;4.832;2023-07-16T02:45:11;100673.03;;;16.92;100.00
69667;BME280;66534;52.370;4.832;2023-07-16T02:45:42;100667.66;;;16.93;100.00
69667;BME280;66534;52.370;4.832;2023-07-16T02:46:12;100671.97;;;16.95;100.00
69667;BME280;66534;52.370;4.832;2023-07-16T02:46:43;100672.34;;;17.01;100.00
69667;BME280;66534;52.370;4.832;2023-07-16T02:47:14;100674.06;;;17.02;100.00
69667;BME280;66534;52.370;4.832;2023-07-16T02:47:44;100661.16;;;16.98;100.00
69667;BME280;66534;52.370;4.832;2023-07-16T02:48:15;100666.22;;;17.01;100.00
69667;BME280;66534;52.370;4.832;2023-07-16T02:48:45;100665.28;;;17.02;100.00
69667;BME280;66534;52.370;4.832;2023-07-16T02:49:15;100664.66;;;16.98;100.00